createdAt,value
2022-10-05T00:00:13.450Z,17.97
2022-10-05T00:02:42.895Z,18.10
2022-10-05T00:05:21.962Z,17.88
2022-10-05T00:07:49.686Z,17.48
2022-10-05T00:10:20.226Z,17.92
2022-10-05T00:12:48.951Z,18.28
2022-10-05T00:15:19.590Z,18.36
2022-10-05T00:17:48.894Z,17.99
2022-10-05T00:20:20.952Z,17.76
2022-10-05T00:22:49.494Z,18.41
2022-10-05T00:25:21.513Z,18.31
2022-10-05T00:27:55.125Z,18.53
2022-10-05T00:30:23.769Z,18.62
2022-10-05T00:32:58.639Z,18.62
2022-10-05T00:35:29.154Z,18.72
2022-10-05T00:37:57.250Z,18.65
2022-10-05T00:40:37.079Z,18.75
2022-10-05T00:43:25.147Z,18.79
2022-10-05T00:45:57.623Z,18.70
2022-10-05T00:48:37.059Z,18.64
2022-10-05T00:51:20.706Z,18.57
2022-10-05T00:53:58.157Z,18.52
2022-10-05T00:56:56.647Z,18.49
2022-10-05T00:59:37.908Z,18.45
2022-10-05T01:02:13.361Z,18.40
2022-10-05T01:04:49.271Z,18.27
2022-10-05T01:07:29.740Z,18.29
2022-10-05T01:10:04.764Z,18.40
2022-10-05T01:12:41.659Z,18.43
2022-10-05T01:15:14.758Z,18.32
2022-10-05T01:17:47.906Z,18.35
2022-10-05T01:20:31.569Z,18.38
2022-10-05T01:23:24.158Z,18.23
2022-10-05T01:26:06.134Z,18.25
2022-10-05T01:28:38.442Z,18.25
2022-10-05T01:31:10.755Z,18.17
2022-10-05T01:33:44.467Z,18.24
2022-10-05T01:36:24.538Z,18.26
2022-10-05T01:39:00.626Z,18.25
2022-10-05T01:41:37.138Z,18.27
2022-10-05T01:44:12.653Z,18.17
2022-10-05T01:46:45.101Z,18.07
2022-10-05T01:49:34.578Z,18.21
2022-10-05T01:52:16.424Z,18.19
2022-10-05T01:54:55.119Z,18.33
2022-10-05T01:57:34.915Z,18.36
2022-10-05T02:00:09.853Z,18.36
2022-10-05T02:02:40.503Z,18.35
2022-10-05T02:05:14.993Z,18.37
2022-10-05T02:07:49.050Z,18.35
2022-10-05T02:10:24.032Z,18.35
2022-10-05T02:12:58.457Z,18.37
2022-10-05T02:15:34.680Z,18.34
2022-10-05T02:18:09.563Z,18.39
2022-10-05T02:20:41.577Z,18.35
2022-10-05T02:23:13.582Z,18.34
2022-10-05T02:25:46.047Z,18.35
2022-10-05T02:28:17.678Z,18.32
2022-10-05T02:30:52.706Z,18.29
2022-10-05T02:33:28.533Z,18.34
2022-10-05T02:36:01.250Z,18.31
2022-10-05T02:38:37.866Z,18.36
2022-10-05T02:41:13.491Z,18.37
2022-10-05T02:43:49.506Z,18.41
2022-10-05T02:46:29.819Z,18.41
2022-10-05T02:49:10.040Z,18.34
2022-10-05T02:51:47.443Z,18.24
2022-10-05T02:54:25.144Z,18.37
2022-10-05T02:57:01.184Z,18.40
2022-10-05T02:59:36.009Z,18.40
2022-10-05T03:02:13.958Z,18.44
2022-10-05T03:04:49.795Z,18.35
2022-10-05T03:07:24.216Z,18.42
2022-10-05T03:10:01.808Z,18.38
2022-10-05T03:12:43.973Z,18.41
2022-10-05T03:15:21.321Z,18.37
2022-10-05T03:18:00.603Z,18.39
2022-10-05T03:20:39.750Z,18.37
2022-10-05T03:23:16.053Z,18.40
2022-10-05T03:25:58.182Z,18.29
2022-10-05T03:28:31.395Z,18.32
2022-10-05T03:31:02.022Z,18.12
2022-10-05T03:33:40.818Z,18.18
2022-10-05T03:36:17.443Z,18.19
2022-10-05T03:38:51.175Z,18.19
2022-10-05T03:41:24.722Z,18.35
2022-10-05T03:44:30.070Z,18.29
2022-10-05T03:47:08.837Z,18.43
2022-10-05T03:49:49.018Z,18.37
2022-10-05T03:52:23.180Z,18.29
2022-10-05T03:54:57.191Z,18.37
2022-10-05T03:57:27.810Z,18.41
2022-10-05T04:00:01.579Z,18.43
2022-10-05T04:02:33.937Z,18.44
2022-10-05T04:05:06.812Z,18.45
2022-10-05T04:07:43.745Z,18.46
2022-10-05T04:10:17.334Z,18.50
2022-10-05T04:12:48.966Z,18.34
2022-10-05T04:15:22.759Z,18.38
2022-10-05T04:17:55.647Z,18.39
2022-10-05T04:20:30.030Z,18.16
2022-10-05T04:23:03.902Z,18.36
2022-10-05T04:25:36.230Z,18.40
2022-10-05T04:28:12.481Z,18.49
2022-10-05T04:30:45.906Z,18.38
2022-10-05T04:33:15.882Z,18.48
2022-10-05T04:35:57.250Z,18.33
2022-10-05T04:38:35.564Z,18.31
2022-10-05T04:41:17.605Z,18.40
2022-10-05T04:43:59.638Z,18.36
2022-10-05T04:46:40.103Z,18.45
2022-10-05T04:49:44.170Z,18.46
2022-10-05T04:52:16.046Z,18.50
2022-10-05T04:54:54.814Z,18.52
2022-10-05T04:57:29.994Z,18.62
2022-10-05T05:00:10.195Z,18.69
2022-10-05T05:02:52.839Z,18.48
2022-10-05T05:05:32.661Z,18.54
2022-10-05T05:08:14.554Z,18.65
2022-10-05T05:11:02.198Z,18.64
2022-10-05T05:14:05.237Z,18.63
2022-10-05T05:16:39.542Z,18.63
2022-10-05T05:19:19.403Z,18.63
2022-10-05T05:21:56.164Z,18.59
2022-10-05T05:24:39.610Z,18.64
2022-10-05T05:27:25.673Z,18.69
2022-10-05T05:30:02.748Z,18.67
2022-10-05T05:32:41.383Z,18.56
2022-10-05T05:35:33.042Z,18.68
2022-10-05T05:38:10.309Z,18.54
2022-10-05T05:40:49.393Z,18.54
2022-10-05T05:43:25.379Z,18.48
2022-10-05T05:46:00.378Z,18.64
2022-10-05T05:48:37.278Z,18.47
2022-10-05T05:51:10.238Z,18.63
2022-10-05T05:53:42.375Z,18.40
2022-10-05T05:56:14.313Z,18.28
2022-10-05T05:58:48.062Z,18.09
2022-10-05T06:01:32.729Z,18.31
2022-10-05T06:04:05.006Z,18.37
2022-10-05T06:06:37.074Z,18.56
2022-10-05T06:09:14.316Z,18.42
2022-10-05T06:11:49.090Z,18.59
2022-10-05T06:14:23.541Z,18.45
2022-10-05T06:16:57.622Z,18.62
2022-10-05T06:19:28.199Z,18.84
2022-10-05T06:22:01.647Z,18.87
2022-10-05T06:24:36.646Z,18.59
2022-10-05T06:27:22.341Z,18.82
2022-10-05T06:30:03.838Z,18.88
2022-10-05T06:32:35.002Z,18.87
2022-10-05T06:35:13.349Z,18.76
2022-10-05T06:38:03.995Z,18.75
2022-10-05T06:40:45.089Z,18.59
2022-10-05T06:43:31.743Z,18.50
2022-10-05T06:46:08.016Z,18.71
2022-10-05T06:48:47.973Z,18.88
2022-10-05T06:51:26.585Z,18.99
2022-10-05T06:54:04.607Z,18.96
2022-10-05T06:56:35.840Z,19.03
2022-10-05T06:59:12.490Z,18.67
2022-10-05T07:01:51.854Z,18.94
2022-10-05T07:04:42.788Z,18.87
2022-10-05T07:07:20.560Z,18.98
2022-10-05T07:09:59.711Z,18.88
2022-10-05T07:12:44.994Z,18.89
2022-10-05T07:15:36.830Z,18.62
2022-10-05T07:18:33.849Z,18.71
2022-10-05T07:21:10.738Z,18.46
2022-10-05T07:23:53.838Z,18.87
2022-10-05T07:26:27.860Z,18.72
2022-10-05T07:29:20.807Z,18.97
2022-10-05T07:32:04.208Z,19.15
2022-10-05T07:34:42.510Z,19.19
2022-10-05T07:37:31.527Z,19.18
2022-10-05T07:40:09.797Z,19.28
2022-10-05T07:42:51.863Z,19.44
2022-10-05T07:45:28.840Z,19.33
2022-10-05T07:48:00.218Z,19.40
2022-10-05T07:50:34.857Z,19.05
2022-10-05T07:53:12.039Z,19.15
2022-10-05T07:55:44.816Z,19.29
2022-10-05T07:58:22.007Z,19.37
2022-10-05T08:01:03.565Z,19.40
2022-10-05T08:03:41.715Z,19.52
2022-10-05T08:06:13.950Z,19.16
2022-10-05T08:08:49.465Z,18.93
2022-10-05T08:11:20.392Z,19.21
2022-10-05T08:13:55.589Z,19.33
2022-10-05T08:16:27.595Z,19.26
2022-10-05T08:19:00.238Z,19.30
2022-10-05T08:21:34.206Z,19.33
2022-10-05T08:24:16.342Z,19.41
2022-10-05T08:26:52.167Z,19.01
2022-10-05T08:29:26.118Z,19.16
2022-10-05T08:31:59.225Z,19.41
2022-10-05T08:34:36.073Z,19.21
2022-10-05T08:37:08.896Z,19.19
2022-10-05T08:39:40.795Z,18.99
2022-10-05T08:42:44.486Z,19.12
2022-10-05T08:45:31.806Z,18.93
2022-10-05T08:48:29.197Z,18.71
2022-10-05T08:51:36.051Z,19.37
2022-10-05T08:54:29.931Z,19.40
2022-10-05T08:57:17.862Z,19.36
2022-10-05T09:00:04.405Z,19.82
2022-10-05T09:02:50.645Z,19.63
2022-10-05T09:05:51.612Z,19.92
2022-10-05T09:08:51.242Z,19.29
2022-10-05T09:11:26.095Z,19.82
2022-10-05T09:14:17.952Z,19.87
2022-10-05T09:16:52.337Z,19.55
2022-10-05T09:19:51.978Z,19.38
2022-10-05T09:22:37.922Z,19.73
2022-10-05T09:25:19.407Z,20.07
2022-10-05T09:27:55.801Z,19.94
2022-10-05T09:30:28.039Z,19.79
2022-10-05T09:33:26.017Z,19.97
2022-10-05T09:36:20.576Z,19.75
2022-10-05T09:39:35.814Z,20.03
2022-10-05T09:42:25.377Z,20.24
2022-10-05T09:45:24.667Z,20.08
2022-10-05T09:48:43.709Z,19.94
2022-10-05T09:51:32.699Z,19.88
2022-10-05T09:54:32.503Z,20.44
2022-10-05T09:57:26.405Z,20.30
2022-10-05T10:00:09.679Z,20.21
2022-10-05T10:02:55.242Z,20.97
2022-10-05T10:05:45.569Z,20.86
2022-10-05T10:08:26.234Z,21.19
2022-10-05T10:11:23.802Z,20.38
2022-10-05T10:14:33.927Z,20.53
2022-10-05T10:17:32.527Z,20.25
2022-10-05T10:20:20.306Z,20.29
2022-10-05T10:23:16.605Z,20.33
2022-10-05T10:26:06.275Z,20.52
2022-10-05T10:29:02.415Z,20.21
2022-10-05T10:32:01.627Z,20.11
2022-10-05T10:34:56.497Z,20.39
2022-10-05T10:37:59.931Z,20.50
2022-10-05T10:40:39.536Z,20.36
2022-10-05T10:43:30.894Z,20.72
2022-10-05T10:46:08.269Z,20.98
2022-10-05T10:48:51.238Z,21.12
2022-10-05T10:51:39.487Z,21.44
2022-10-05T10:54:36.503Z,21.72
2022-10-05T10:57:09.281Z,22.02
2022-10-05T11:00:06.363Z,22.22
2022-10-05T11:03:24.919Z,21.86
2022-10-05T11:06:12.154Z,21.80
2022-10-05T11:09:09.320Z,21.49
2022-10-05T11:12:12.287Z,21.08
2022-10-05T11:15:14.005Z,20.89
2022-10-05T11:17:59.095Z,20.82
2022-10-05T11:20:51.954Z,20.58
2022-10-05T11:23:55.940Z,21.25
2022-10-05T11:26:42.457Z,21.54
2022-10-05T11:29:33.378Z,21.37
2022-10-05T11:32:39.652Z,21.64
2022-10-05T11:35:40.390Z,21.34
2022-10-05T11:38:22.860Z,21.47
2022-10-05T11:41:10.757Z,21.10
2022-10-05T11:44:03.272Z,21.02
2022-10-05T11:46:42.169Z,20.61
2022-10-05T11:49:23.211Z,20.99
2022-10-05T11:52:02.102Z,21.12
2022-10-05T11:55:11.377Z,21.62
2022-10-05T11:57:48.374Z,21.38
2022-10-05T12:00:20.845Z,21.45
2022-10-05T12:03:01.281Z,21.02
2022-10-05T12:05:38.426Z,21.07
2022-10-05T12:08:22.675Z,21.52
2022-10-05T12:11:03.557Z,21.01
2022-10-05T12:13:41.468Z,21.66
2022-10-05T12:16:17.638Z,21.30
2022-10-05T12:18:51.648Z,21.59
2022-10-05T12:21:29.518Z,22.02
2022-10-05T12:24:01.383Z,22.30
2022-10-05T12:26:35.442Z,21.95
2022-10-05T12:29:09.525Z,21.95
2022-10-05T12:31:47.041Z,22.27
2022-10-05T12:34:28.555Z,22.09
2022-10-05T12:37:05.159Z,22.24
2022-10-05T12:39:41.194Z,21.77
2022-10-05T12:42:25.929Z,21.67
2022-10-05T12:45:09.422Z,21.40
2022-10-05T12:47:54.901Z,21.54
2022-10-05T12:50:28.630Z,21.08
2022-10-05T12:53:15.772Z,21.17
2022-10-05T12:55:50.308Z,21.38
2022-10-05T12:58:29.030Z,21.05
2022-10-05T13:01:05.035Z,21.21
2022-10-05T13:03:40.244Z,21.22
2022-10-05T13:06:18.605Z,20.58
2022-10-05T13:08:53.019Z,20.64
2022-10-05T13:11:29.621Z,20.77
2022-10-05T13:14:11.109Z,20.57
2022-10-05T13:16:45.717Z,20.39
2022-10-05T13:19:27.034Z,20.66
2022-10-05T13:22:26.506Z,21.13
2022-10-05T13:25:04.473Z,20.87
2022-10-05T13:27:36.385Z,20.59
2022-10-05T13:30:13.172Z,20.69
2022-10-05T13:32:46.440Z,20.01
2022-10-05T13:35:35.772Z,20.32
2022-10-05T13:38:12.325Z,19.81
2022-10-05T13:40:47.061Z,19.67
2022-10-05T13:43:23.992Z,19.43
2022-10-05T13:45:57.015Z,19.81
2022-10-05T13:48:47.272Z,20.04
2022-10-05T13:51:23.332Z,19.71
2022-10-05T13:53:57.259Z,20.09
2022-10-05T13:56:30.972Z,19.86
2022-10-05T13:59:12.434Z,20.01
2022-10-05T14:01:44.994Z,20.22
2022-10-05T14:04:19.055Z,19.78
2022-10-05T14:06:49.526Z,20.17
2022-10-05T14:09:30.104Z,19.98
2022-10-05T14:12:15.125Z,20.37
2022-10-05T14:14:49.188Z,20.35
2022-10-05T14:17:18.967Z,20.43
2022-10-05T14:19:51.058Z,20.32
2022-10-05T14:22:23.521Z,20.13
2022-10-05T14:24:55.435Z,20.15
2022-10-05T14:27:25.575Z,20.50
2022-10-05T14:29:59.714Z,19.82
2022-10-05T14:32:31.113Z,20.04
2022-10-05T14:35:13.732Z,20.04
2022-10-05T14:37:51.321Z,20.08
2022-10-05T14:40:33.788Z,20.30
2022-10-05T14:43:18.373Z,19.89
2022-10-05T14:45:57.166Z,19.80
2022-10-05T14:48:27.973Z,20.13
2022-10-05T14:50:57.754Z,20.11
2022-10-05T14:53:39.168Z,20.33
2022-10-05T14:56:32.207Z,20.17
2022-10-05T14:59:24.354Z,20.10
2022-10-05T15:01:57.485Z,19.82
2022-10-05T15:04:33.901Z,20.24
2022-10-05T15:07:14.516Z,20.26
2022-10-05T15:10:02.586Z,20.20
2022-10-05T15:12:33.520Z,19.75
2022-10-05T15:15:05.736Z,19.81
2022-10-05T15:17:40.476Z,19.74
2022-10-05T15:20:19.912Z,19.80
2022-10-05T15:22:53.870Z,19.85
2022-10-05T15:25:30.447Z,19.89
2022-10-05T15:28:10.267Z,19.40
2022-10-05T15:30:42.593Z,19.45
2022-10-05T15:33:19.223Z,19.44
2022-10-05T15:36:00.475Z,19.56
2022-10-05T15:38:31.957Z,18.39
2022-10-05T15:41:11.176Z,18.00
2022-10-05T15:43:51.152Z,17.74
2022-10-05T15:46:25.916Z,17.69
2022-10-05T15:49:05.635Z,17.45
2022-10-05T15:51:50.739Z,17.45
2022-10-05T15:54:43.392Z,17.32
2022-10-05T15:57:22.734Z,17.58
2022-10-05T16:00:01.838Z,17.17
2022-10-05T16:02:39.935Z,17.56
2022-10-05T16:05:47.640Z,17.80
2022-10-05T16:08:47.685Z,17.89
2022-10-05T16:11:26.953Z,17.80
2022-10-05T16:14:02.475Z,18.07
2022-10-05T16:16:42.694Z,17.69
2022-10-05T16:19:20.158Z,17.89
2022-10-05T16:21:57.890Z,17.83
2022-10-05T16:24:51.601Z,18.04
2022-10-05T16:27:31.041Z,17.85
2022-10-05T16:30:03.982Z,17.90
2022-10-05T16:32:38.325Z,17.48
2022-10-05T16:35:18.170Z,17.76
2022-10-05T16:37:53.990Z,17.84
2022-10-05T16:40:32.135Z,17.90
2022-10-05T16:43:10.653Z,18.00
2022-10-05T16:45:51.768Z,17.93
2022-10-05T16:48:26.570Z,17.96
2022-10-05T16:51:17.717Z,17.96
2022-10-05T16:53:51.845Z,17.97
2022-10-05T16:56:25.111Z,17.99
2022-10-05T16:58:59.205Z,18.01
2022-10-05T17:01:43.839Z,17.74
2022-10-05T17:04:34.258Z,17.91
2022-10-05T17:07:22.509Z,17.97
2022-10-05T17:10:41.057Z,17.95
2022-10-05T17:13:30.061Z,18.08
2022-10-05T17:16:06.903Z,17.86
2022-10-05T17:19:05.942Z,17.98
2022-10-05T17:21:39.221Z,18.00
2022-10-05T17:24:19.760Z,17.98
2022-10-05T17:27:03.069Z,17.94
2022-10-05T17:29:47.535Z,17.90
2022-10-05T17:32:36.042Z,17.78
2022-10-05T17:35:18.931Z,17.86
2022-10-05T17:38:14.494Z,17.91
2022-10-05T17:40:58.532Z,17.83
2022-10-05T17:43:30.676Z,17.76
2022-10-05T17:46:00.637Z,17.83
2022-10-05T17:48:41.536Z,17.99
2022-10-05T17:51:36.567Z,18.05
2022-10-05T17:54:41.134Z,18.10
2022-10-05T17:57:20.284Z,18.15
2022-10-05T17:59:58.655Z,18.10
2022-10-05T18:02:42.683Z,18.10
2022-10-05T18:05:31.719Z,18.15
2022-10-05T18:08:31.837Z,18.09
2022-10-05T18:11:17.164Z,18.13
2022-10-05T18:13:49.935Z,18.12
2022-10-05T18:16:50.995Z,17.96
2022-10-05T18:19:22.977Z,17.95
2022-10-05T18:22:10.858Z,17.95
2022-10-05T18:25:03.860Z,18.02
2022-10-05T18:28:05.343Z,18.03
2022-10-05T18:30:41.590Z,18.09
2022-10-05T18:33:43.925Z,18.00
2022-10-05T18:36:48.846Z,17.83
2022-10-05T18:39:34.360Z,17.71
2022-10-05T18:42:13.720Z,17.70
2022-10-05T18:44:46.261Z,17.65
2022-10-05T18:47:20.697Z,17.58
2022-10-05T18:50:08.198Z,17.59
2022-10-05T18:52:49.275Z,17.50
2022-10-05T18:55:24.522Z,17.40
2022-10-05T18:58:08.259Z,17.43
2022-10-05T19:01:01.131Z,17.24
2022-10-05T19:03:36.470Z,17.15
2022-10-05T19:06:14.940Z,17.14
2022-10-05T19:08:52.794Z,17.03
2022-10-05T19:11:29.910Z,16.94
2022-10-05T19:14:05.915Z,16.93
2022-10-05T19:17:03.044Z,16.96
2022-10-05T19:19:51.848Z,16.81
2022-10-05T19:22:32.886Z,16.95
2022-10-05T19:25:15.160Z,16.81
2022-10-05T19:27:57.526Z,16.89
2022-10-05T19:30:30.021Z,16.85
2022-10-05T19:33:17.467Z,16.88
2022-10-05T19:35:58.290Z,16.77
2022-10-05T19:38:33.358Z,16.60
2022-10-05T19:41:12.994Z,16.58
2022-10-05T19:43:55.390Z,16.55
2022-10-05T19:46:34.951Z,16.55
2022-10-05T19:49:02.723Z,16.49
2022-10-05T19:51:32.631Z,16.48
2022-10-05T19:54:03.854Z,16.43
2022-10-05T19:56:34.563Z,16.43
2022-10-05T19:59:13.167Z,16.39
2022-10-05T20:01:50.632Z,16.24
2022-10-05T20:04:34.026Z,16.17
2022-10-05T20:07:02.916Z,15.95
2022-10-05T20:09:50.144Z,15.88
2022-10-05T20:12:17.844Z,15.78
2022-10-05T20:15:05.823Z,15.80
2022-10-05T20:17:52.222Z,15.76
2022-10-05T20:20:26.294Z,15.56
2022-10-05T20:22:53.961Z,15.67
2022-10-05T20:25:32.557Z,15.82
2022-10-05T20:27:59.492Z,15.79
2022-10-05T20:30:28.860Z,15.89
2022-10-05T20:33:00.549Z,15.89
2022-10-05T20:35:30.623Z,15.82
2022-10-05T20:38:00.315Z,15.78
2022-10-05T20:40:29.050Z,15.56
2022-10-05T20:42:57.228Z,15.45
2022-10-05T20:45:25.123Z,15.64
2022-10-05T20:47:52.809Z,15.63
2022-10-05T20:50:22.221Z,15.47
2022-10-05T20:52:49.989Z,15.31
2022-10-05T20:55:17.882Z,15.34
2022-10-05T20:57:46.109Z,15.27
2022-10-05T21:00:14.805Z,15.23
2022-10-05T21:02:42.484Z,15.13
2022-10-05T21:05:10.537Z,14.98
2022-10-05T21:07:40.896Z,14.98
2022-10-05T21:10:09.586Z,14.87
2022-10-05T21:12:37.299Z,14.81
2022-10-05T21:15:06.026Z,14.81
2022-10-05T21:17:35.146Z,14.79
2022-10-05T21:20:03.147Z,14.86
2022-10-05T21:22:30.868Z,14.79
2022-10-05T21:24:59.906Z,14.78
2022-10-05T21:27:27.566Z,14.82
2022-10-05T21:29:55.255Z,14.71
2022-10-05T21:32:22.909Z,14.69
2022-10-05T21:34:50.629Z,14.78
2022-10-05T21:37:19.792Z,14.81
2022-10-05T21:39:47.516Z,14.88
2022-10-05T21:42:16.546Z,14.83
2022-10-05T21:44:44.261Z,14.77
2022-10-05T21:47:12.278Z,14.77
2022-10-05T21:49:40.134Z,14.60
2022-10-05T21:52:08.050Z,14.57
2022-10-05T21:54:36.049Z,14.47
2022-10-05T21:57:03.965Z,14.42
2022-10-05T21:59:35.290Z,14.28
2022-10-05T22:02:03.449Z,14.28
2022-10-05T22:04:31.186Z,14.26
2022-10-05T22:06:59.217Z,14.28
2022-10-05T22:09:26.978Z,14.29
2022-10-05T22:11:54.871Z,14.30
2022-10-05T22:14:22.662Z,14.28
2022-10-05T22:16:53.273Z,14.17
2022-10-05T22:19:21.610Z,14.23
2022-10-05T22:21:49.323Z,13.99
2022-10-05T22:24:17.029Z,14.00
2022-10-05T22:26:47.339Z,13.97
2022-10-05T22:29:16.907Z,13.93
2022-10-05T22:31:46.157Z,13.94
2022-10-05T22:34:15.853Z,13.89
2022-10-05T22:36:43.551Z,13.77
2022-10-05T22:39:11.401Z,13.64
2022-10-05T22:41:39.057Z,13.69
2022-10-05T22:44:07.193Z,13.57
2022-10-05T22:46:35.222Z,13.64
2022-10-05T22:49:03.311Z,13.53
2022-10-05T22:51:32.433Z,13.62
2022-10-05T22:54:00.184Z,13.71
2022-10-05T22:56:28.496Z,13.55
2022-10-05T22:58:56.263Z,13.53
2022-10-05T23:01:24.000Z,13.49
2022-10-05T23:03:51.716Z,13.40
2022-10-05T23:06:21.290Z,13.39
2022-10-05T23:08:50.392Z,13.33
2022-10-05T23:11:19.460Z,13.37
2022-10-05T23:13:47.175Z,13.30
2022-10-05T23:16:16.833Z,13.34
2022-10-05T23:18:45.151Z,13.44
2022-10-05T23:21:12.929Z,13.44
2022-10-05T23:23:42.502Z,13.19
2022-10-05T23:26:12.643Z,13.24
2022-10-05T23:28:42.921Z,13.25
2022-10-05T23:31:10.905Z,13.20
2022-10-05T23:33:38.622Z,13.25
2022-10-05T23:36:08.881Z,13.28
2022-10-05T23:38:37.525Z,13.17
2022-10-05T23:41:06.064Z,13.09
2022-10-05T23:43:35.554Z,13.07
2022-10-05T23:46:04.256Z,13.22
2022-10-05T23:48:32.557Z,13.35
2022-10-05T23:51:01.485Z,13.18
2022-10-05T23:53:29.210Z,13.03
2022-10-05T23:55:57.257Z,13.18
2022-10-05T23:58:25.277Z,13.09
